Time;durP1;ratioP1;P1;durP2;ratioP2;P2;SDS_P1;SDS_P2;PMS_P1;PMS_P2;Temp;Humidity;BMP_temperature;BMP_pressure;BME280_temperature;BME280_humidity;BME280_pressure;Samples;Min_cycle;Max_cycle;Signal;HPM_P1;HPM_P2
2023/04/21 00:00:48;;;;;;;80.03;38.50;;;;;;;7.25;100.00;101175.38;4887156;29;20041;-79
2023/04/21 00:03:14;;;;;;;84.88;38.60;;;;;;;7.29;100.00;101172.34;4888826;29;20340;-80
2023/04/21 00:05:41;;;;;;;87.18;38.97;;;;;;;7.17;100.00;101159.47;4892316;29;20063;-79
2023/04/21 00:08:09;;;;;;;87.40;39.55;;;;;;;7.17;100.00;101156.75;4892227;29;20100;-80
2023/04/21 00:10:35;;;;;;;87.97;38.47;;;;;;;7.20;100.00;101159.31;4875747;29;20141;-80
2023/04/21 00:13:00;;;;;;;90.70;38.88;;;;;;;7.22;100.00;101148.31;4874795;29;20037;-79
2023/04/21 00:15:26;;;;;;;85.88;38.30;;;;;;;7.20;100.00;101136.63;4891664;29;20033;-79
2023/04/21 00:17:51;;;;;;;80.35;38.28;;;;;;;7.12;100.00;101135.25;4877921;29;20039;-79
2023/04/21 00:20:17;;;;;;;87.50;39.05;;;;;;;7.22;100.00;101140.16;4856839;29;20075;-79
2023/04/21 00:22:42;;;;;;;82.93;37.92;;;;;;;7.10;100.00;101137.19;4863764;29;20068;-79
2023/04/21 00:25:08;;;;;;;85.72;37.80;;;;;;;7.11;100.00;101132.63;4896088;29;20051;-79
2023/04/21 00:27:34;;;;;;;87.03;39.25;;;;;;;7.09;100.00;101129.13;4869671;29;20041;-79
2023/04/21 00:30:00;;;;;;;89.47;38.22;;;;;;;7.16;100.00;101136.81;4904468;29;20051;-79
2023/04/21 00:32:25;;;;;;;91.95;38.00;;;;;;;7.17;100.00;101141.28;4895078;29;20047;-79
2023/04/21 00:34:51;;;;;;;100.47;37.97;;;;;;;7.17;100.00;101137.69;4893961;29;20040;-79
2023/04/21 00:37:16;;;;;;;86.15;37.70;;;;;;;7.19;100.00;101149.38;4873582;29;20115;-79
2023/04/21 00:39:41;;;;;;;95.72;37.75;;;;;;;7.12;100.00;101131.66;4893888;29;20044;-79
2023/04/21 00:42:07;;;;;;;83.93;36.85;;;;;;;7.20;100.00;101136.63;4907930;29;20047;-79
2023/04/21 00:44:33;;;;;;;82.10;38.10;;;;;;;7.11;100.00;101127.16;4884291;29;20028;-79
2023/04/21 00:46:58;;;;;;;86.97;39.25;;;;;;;7.21;100.00;101127.50;4898609;29;20054;-79
2023/04/21 00:52:00;;;;;;;83.32;37.15;;;;;;;7.14;100.00;101124.25;5862152;23;20458;-77
2023/04/21 00:54:26;;;;;;;82.10;36.88;;;;;;;7.14;100.00;101111.53;4917572;29;20059;-77
2023/04/21 00:56:54;;;;;;;84.85;36.58;;;;;;;7.10;100.00;101111.78;4949372;29;20032;-79
2023/04/21 00:59:20;;;;;;;93.55;37.65;;;;;;;7.17;100.00;101108.59;4907207;29;20051;-79
2023/04/21 01:01:45;;;;;;;94.00;38.47;;;;;;;7.14;100.00;101114.25;4929392;29;20044;-77
2023/04/21 01:04:14;;;;;;;94.30;37.83;;;;;;;7.12;100.00;101108.03;4899487;29;20035;-78
2023/04/21 01:06:41;;;;;;;97.90;37.33;;;;;;;7.14;100.00;101111.53;4906118;29;20050;-79
2023/04/21 01:09:07;;;;;;;103.45;37.67;;;;;;;7.16;100.00;101103.25;4906545;29;20067;-76
2023/04/21 01:11:33;;;;;;;83.75;34.42;;;;;;;7.14;100.00;101099.75;4888040;29;20084;-76
2023/04/21 01:13:58;;;;;;;92.93;35.28;;;;;;;7.17;100.00;101108.59;4912844;29;20054;-77
2023/04/21 01:16:24;;;;;;;92.65;35.33;;;;;;;7.14;100.00;101097.91;4927778;29;20040;-77
2023/04/21 01:18:52;;;;;;;87.28;35.58;;;;;;;7.17;100.00;101105.03;4891193;29;20045;-77
2023/04/21 01:21:18;;;;;;;87.35;34.40;;;;;;;7.12;100.00;101105.28;4912472;29;20403;-79
2023/04/21 01:23:44;;;;;;;87.90;34.00;;;;;;;7.16;100.00;101101.41;4899923;29;20080;-77
2023/04/21 01:26:10;;;;;;;87.07;34.78;;;;;;;7.14;100.00;101100.63;4907175;29;20029;-78
2023/04/21 01:28:36;;;;;;;90.65;34.63;;;;;;;7.19;100.00;101103.06;4902810;29;20063;-77
2023/04/21 01:31:02;;;;;;;82.07;36.58;;;;;;;7.14;100.00;101099.75;4920813;29;20551;-77
2023/04/21 01:33:27;;;;;;;92.32;36.20;;;;;;;7.16;100.00;101093.22;4874502;29;20041;-78
2023/04/21 01:35:54;;;;;;;92.57;35.65;;;;;;;7.18;100.00;101091.31;4882760;29;20055;-78
2023/04/21 01:38:20;;;;;;;91.85;35.00;;;;;;;7.12;100.00;101086.22;4900720;29;20040;-78
2023/04/21 01:40:51;;;;;;;87.13;35.15;;;;;;;7.16;100.00;101082.34;4890877;29;20135;-78
2023/04/21 01:43:19;;;;;;;91.28;35.88;;;;;;;7.18;100.00;101074.06;4902219;29;20496;-78
2023/04/21 01:45:46;;;;;;;98.53;36.05;;;;;;;7.11;100.00;101062.69;4899762;29;20048;-78
2023/04/21 01:48:11;;;;;;;85.35;35.35;;;;;;;7.17;100.00;101066.91;4908714;29;20030;-77
2023/04/21 01:50:37;;;;;;;101.68;36.97;;;;;;;7.13;100.00;101060.78;4913974;29;20930;-78
2023/04/21 01:53:02;;;;;;;100.07;36.97;;;;;;;7.15;100.00;101066.13;4888005;29;20063;-78
2023/04/21 01:55:28;;;;;;;123.07;36.67;;;;;;;7.14;100.00;101062.50;4901602;29;20037;-78
2023/04/21 01:57:56;;;;;;;107.90;37.60;;;;;;;7.13;100.00;101059.88;4887110;29;20044;-77
2023/04/21 02:00:22;;;;;;;91.57;35.75;;;;;;;7.21;100.00;101062.13;4872015;29;20041;-78
2023/04/21 02:02:47;;;;;;;93.25;36.30;;;;;;;7.13;100.00;101063.50;4886571;29;20452;-78
2023/04/21 02:05:13;;;;;;;98.32;37.30;;;;;;;7.10;100.00;101055.50;4892310;29;20037;-78
2023/04/21 02:07:38;;;;;;;93.65;37.03;;;;;;;7.19;100.00;101056.78;4876718;29;20147;-78
2023/04/21 02:10:04;;;;;;;93.65;36.08;;;;;;;7.14;100.00;101059.78;4894574;29;20568;-78
2023/04/21 02:12:29;;;;;;;108.15;38.80;;;;;;;7.15;100.00;101058.81;4890099;29;20485;-78
2023/04/21 02:14:55;;;;;;;103.22;39.60;;;;;;;7.18;100.00;101049.56;4859737;29;20041;-78
2023/04/21 02:17:20;;;;;;;112.57;38.90;;;;;;;7.23;100.00;101052.00;4902737;29;20040;-79
2023/04/21 02:19:46;;;;;;;110.13;38.72;;;;;;;7.20;100.00;101044.03;4885163;29;20045;-79
2023/04/21 02:22:12;;;;;;;108.45;39.55;;;;;;;7.09;100.00;101040.13;4887334;29;20044;-78
2023/04/21 02:24:38;;;;;;;104.13;37.00;;;;;;;7.13;100.00;101047.16;4873257;29;20085;-78
2023/04/21 02:27:03;;;;;;;97.75;38.83;;;;;;;7.17;100.00;101050.56;4873403;29;20481;-78
2023/04/21 02:29:29;;;;;;;107.15;38.78;;;;;;;7.18;100.00;101047.75;4891363;29;20048;-79
2023/04/21 02:31:55;;;;;;;107.50;40.10;;;;;;;7.12;100.00;101037.22;4928630;29;20170;-78
2023/04/21 02:34:20;;;;;;;123.65;41.35;;;;;;;7.20;100.00;101049.47;4884994;29;20035;-79
2023/04/21 02:36:46;;;;;;;115.18;40.30;;;;;;;7.18;100.00;101049.56;4896017;29;20049;-79
2023/04/21 02:39:11;;;;;;;116.97;39.70;;;;;;;7.18;100.00;101049.56;4881840;29;20056;-80
2023/04/21 02:41:37;;;;;;;123.25;42.97;;;;;;;7.21;100.00;101045.78;4858165;29;20048;-79
2023/04/21 02:44:05;;;;;;;122.47;42.72;;;;;;;7.23;100.00;101046.56;4902370;29;20041;-79
2023/04/21 02:46:30;;;;;;;110.63;40.85;;;;;;;7.24;100.00;101040.16;4888952;29;20040;-78
2023/04/21 02:48:56;;;;;;;122.25;42.72;;;;;;;7.24;100.00;101040.16;4882100;29;20037;-78
2023/04/21 02:51:21;;;;;;;130.55;42.90;;;;;;;7.27;100.00;101037.25;4903871;29;20527;-78
2023/04/21 02:53:47;;;;;;;126.97;42.45;;;;;;;7.23;100.00;101024.78;4902318;29;20076;-78
2023/04/21 02:56:13;;;;;;;130.13;43.33;;;;;;;7.23;100.00;101024.78;4895209;29;20048;-79
2023/04/21 02:58:38;;;;;;;115.90;41.05;;;;;;;7.25;100.00;101022.88;4898482;29;20485;-80
2023/04/21 03:01:04;;;;;;;125.72;42.72;;;;;;;7.24;100.00;101026.53;4864117;29;20068;-80
2023/04/21 03:03:31;;;;;;;125.78;43.08;;;;;;;7.26;100.00;101038.22;4886989;29;20040;-79
2023/04/21 03:06:02;;;;;;;132.00;45.03;;;;;;;7.24;100.00;101027.41;4893205;29;20033;-79
2023/04/21 03:08:28;;;;;;;127.90;43.88;;;;;;;7.24;100.00;101021.97;4915635;29;20158;-80
2023/04/21 03:10:54;;;;;;;132.50;44.50;;;;;;;7.30;100.00;101029.75;4888289;29;20056;-79
2023/04/21 03:13:19;;;;;;;146.95;46.20;;;;;;;7.30;100.00;101032.47;4888901;29;20145;-79
2023/04/21 03:15:45;;;;;;;139.13;46.55;;;;;;;7.28;100.00;101025.38;4897264;29;20123;-80
2023/04/21 03:18:13;;;;;;;146.95;46.50;;;;;;;7.30;100.00;101018.88;4889953;29;20028;-78
2023/04/21 03:20:39;;;;;;;124.88;45.65;;;;;;;7.31;100.00;101026.06;4888646;29;20040;-79
2023/04/21 03:23:04;;;;;;;134.77;45.15;;;;;;;7.28;100.00;101018.09;4892344;29;20060;-79
2023/04/21 03:25:30;;;;;;;140.82;46.83;;;;;;;7.20;100.00;101005.91;4893158;29;20099;-78
2023/04/21 03:27:55;;;;;;;136.68;46.15;;;;;;;7.28;100.00;101007.19;4904576;29;20041;-79
2023/04/21 03:30:24;;;;;;;140.93;45.47;;;;;;;7.20;100.00;101014.06;4911412;29;20064;-78
2023/04/21 03:32:49;;;;;;;138.50;45.88;;;;;;;7.18;100.00;101011.44;4903973;29;20037;-78
2023/04/21 03:35:15;;;;;;;135.80;44.58;;;;;;;7.09;100.00;101010.19;4891250;29;20140;-78
2023/04/21 03:37:41;;;;;;;133.05;44.58;;;;;;;7.07;100.00;101012.13;4905812;29;20051;-79
2023/04/21 03:40:09;;;;;;;140.88;45.83;;;;;;;7.02;100.00;101011.53;4864717;29;20123;-79
2023/04/21 03:42:36;;;;;;;140.93;44.70;;;;;;;7.04;100.00;101015.03;4896914;29;20037;-78
2023/04/21 03:45:03;;;;;;;138.48;45.65;;;;;;;6.96;100.00;101004.63;4899033;29;20041;-78
2023/04/21 03:47:28;;;;;;;156.60;46.40;;;;;;;6.97;100.00;101013.69;4862947;29;20037;-79
2023/04/21 03:49:54;;;;;;;163.25;46.38;;;;;;;6.93;100.00;101002.09;4889058;29;20404;-79
2023/04/21 03:52:19;;;;;;;166.07;47.35;;;;;;;6.94;100.00;101012.00;4889125;29;20033;-79
2023/04/21 03:54:45;;;;;;;147.32;45.67;;;;;;;6.93;100.00;101018.41;4886044;29;20044;-79
2023/04/21 03:57:11;;;;;;;164.27;48.13;;;;;;;6.79;100.00;101000.22;4887647;29;20052;-80
2023/04/21 03:59:36;;;;;;;163.18;47.13;;;;;;;6.79;100.00;101011.09;4888287;29;20029;-79
2023/04/21 04:02:02;;;;;;;155.70;45.55;;;;;;;6.81;100.00;101005.56;4899107;29;20040;-80
2023/04/21 04:04:27;;;;;;;146.63;45.83;;;;;;;6.76;100.00;101007.69;4880562;29;20115;-79
2023/04/21 04:06:53;;;;;;;149.50;46.45;;;;;;;6.75;100.00;101011.38;4882560;29;20074;-79
2023/04/21 04:09:18;;;;;;;164.10;47.03;;;;;;;6.79;100.00;101013.84;4892516;29;20051;-80
2023/04/21 04:11:44;;;;;;;158.57;46.97;;;;;;;6.70;100.00;101013.50;4892127;29;20050;-79
2023/04/21 04:14:10;;;;;;;177.02;48.92;;;;;;;6.72;100.00;101026.06;4907767;29;20053;-79
2023/04/21 04:16:36;;;;;;;155.82;46.30;;;;;;;6.72;100.00;101023.34;4888855;29;20548;-79
2023/04/21 04:19:02;;;;;;;168.77;46.88;;;;;;;6.74;100.00;101029.56;4893358;29;20036;-79
2023/04/21 04:21:28;;;;;;;176.20;47.15;;;;;;;6.70;100.00;101019.81;4924277;29;20032;-79
2023/04/21 04:23:54;;;;;;;175.88;47.72;;;;;;;6.71;100.00;101032.47;4921150;29;20024;-80
2023/04/21 04:26:21;;;;;;;159.95;47.17;;;;;;;6.73;100.00;101032.38;4922972;29;20091;-78
2023/04/21 04:28:47;;;;;;;152.80;47.88;;;;;;;6.73;100.00;101024.22;4916880;29;20060;-77
2023/04/21 04:31:13;;;;;;;158.32;48.70;;;;;;;6.68;100.00;101016.31;4875305;29;20477;-79
2023/04/21 04:33:42;;;;;;;179.50;48.35;;;;;;;6.70;100.00;101027.97;4879532;29;20040;-79
2023/04/21 04:36:08;;;;;;;177.02;50.38;;;;;;;6.64;100.00;101017.50;4915463;29;20357;-77
2023/04/21 04:38:36;;;;;;;191.38;51.30;;;;;;;6.72;100.00;101027.88;4871054;29;20131;-81
2023/04/21 04:41:02;;;;;;;174.18;49.42;;;;;;;6.71;100.00;101018.00;4889671;29;20052;-82
2023/04/21 04:43:28;;;;;;;191.45;48.00;;;;;;;6.68;100.00;101021.75;4888421;29;20040;-80
2023/04/21 04:45:53;;;;;;;218.57;49.60;;;;;;;6.71;100.00;101021.59;4884633;29;20037;-80
2023/04/21 04:48:19;;;;;;;183.60;50.50;;;;;;;6.70;100.00;101021.66;4914206;29;20051;-81
2023/04/21 04:50:45;;;;;;;200.70;50.85;;;;;;;6.61;100.00;101010.38;4919475;29;20040;-79
2023/04/21 04:53:10;;;;;;;213.68;52.35;;;;;;;6.72;100.00;101023.34;4894203;29;20049;-78
2023/04/21 04:55:36;;;;;;;196.02;49.75;;;;;;;6.84;100.00;101028.97;4884601;29;20069;-78
2023/04/21 04:58:01;;;;;;;234.05;52.05;;;;;;;6.82;100.00;101018.19;4873940;29;20047;-78
2023/04/21 05:00:27;;;;;;;200.50;50.80;;;;;;;6.97;100.00;101030.00;4888277;29;20042;-78
2023/04/21 05:02:53;;;;;;;178.48;51.63;;;;;;;7.03;100.00;101026.88;4919714;29;20048;-78
2023/04/21 05:05:20;;;;;;;196.93;54.10;;;;;;;7.10;100.00;101030.09;4884638;29;20040;-78
2023/04/21 05:07:46;;;;;;;189.57;53.55;;;;;;;7.15;100.00;101041.63;4890675;29;20073;-78
2023/04/21 05:10:12;;;;;;;219.25;53.55;;;;;;;7.18;100.00;101036.84;4887899;29;20037;-79
2023/04/21 05:12:37;;;;;;;180.75;51.97;;;;;;;7.27;100.00;101049.00;4898291;29;20032;-78
2023/04/21 05:15:04;;;;;;;176.93;50.70;;;;;;;7.28;100.00;101045.31;4872350;29;20080;-78
2023/04/21 05:17:30;;;;;;;221.80;54.22;;;;;;;7.24;100.00;101049.19;4888957;29;20199;-77
2023/04/21 05:19:55;;;;;;;196.68;53.10;;;;;;;7.28;100.00;101044.44;4905672;29;20044;-77
2023/04/21 05:22:21;;;;;;;244.38;52.13;;;;;;;7.15;100.00;101049.78;4906319;29;20036;-77
2023/04/21 05:24:47;;;;;;;186.95;51.92;;;;;;;7.25;100.00;101045.50;4885750;29;20045;-77
2023/04/21 05:27:13;;;;;;;194.45;53.17;;;;;;;7.21;100.00;101043.06;4865636;29;20037;-79
2023/04/21 05:29:40;;;;;;;203.20;52.35;;;;;;;7.22;100.00;101044.84;4872057;29;20048;-78
2023/04/21 05:32:06;;;;;;;191.85;55.08;;;;;;;7.30;100.00;101042.50;4905148;29;20049;-78
2023/04/21 05:34:31;;;;;;;195.10;54.35;;;;;;;7.34;100.00;101039.47;4906571;29;20033;-78
2023/04/21 05:36:57;;;;;;;201.43;54.38;;;;;;;7.37;100.00;101054.75;4891104;29;20416;-78
2023/04/21 05:39:22;;;;;;;187.88;52.58;;;;;;;7.48;100.00;101051.38;4887982;29;20113;-79
2023/04/21 05:41:48;;;;;;;171.00;53.40;;;;;;;7.54;100.00;101054.59;4871813;29;20037;-78
2023/04/21 05:44:16;;;;;;;199.27;54.53;;;;;;;7.50;100.00;101044.84;4872085;29;20040;-78
2023/04/21 05:46:42;;;;;;;188.20;54.05;;;;;;;7.59;100.00;101057.03;4904757;29;20043;-78
2023/04/21 05:49:10;;;;;;;197.20;54.63;;;;;;;7.44;100.00;101039.78;4888776;29;20076;-78
2023/04/21 05:51:35;;;;;;;197.02;54.58;;;;;;;7.56;100.00;101059.94;4859837;29;20076;-78
2023/04/21 05:54:02;;;;;;;176.32;52.00;;;;;;;7.61;100.00;101062.34;4901297;29;20080;-78
2023/04/21 05:56:27;;;;;;;187.57;52.28;;;;;;;7.64;100.00;101068.50;4907509;29;20043;-79
2023/04/21 05:58:53;;;;;;;176.40;52.88;;;;;;;7.60;100.00;101056.03;4908993;29;20041;-77
2023/04/21 06:01:18;;;;;;;157.85;50.47;;;;;;;7.64;100.00;101059.44;4894787;29;20045;-77
2023/04/21 06:03:44;;;;;;;173.63;52.47;;;;;;;7.74;100.00;101049.72;4887503;29;20028;-77
2023/04/21 06:06:10;;;;;;;187.77;53.70;;;;;;;7.73;100.00;101037.91;4892287;29;20050;-77
2023/04/21 06:08:36;;;;;;;172.30;55.03;;;;;;;7.82;100.00;101039.19;4901317;29;20040;-77
2023/04/21 06:11:01;;;;;;;157.63;51.00;;;;;;;7.70;100.00;101042.69;4892012;29;20051;-78
2023/04/21 06:13:27;;;;;;;170.15;51.00;;;;;;;7.80;100.00;101046.56;4885237;29;20028;-79
2023/04/21 06:15:53;;;;;;;149.93;51.05;;;;;;;8.04;100.00;101052.28;4901978;29;20036;-82
2023/04/21 06:18:19;;;;;;;148.07;50.88;;;;;;;8.19;100.00;101042.22;4895521;29;20076;-81
2023/04/21 06:20:52;;;;;;;155.55;52.03;;;;;;;8.48;100.00;101031.25;4917487;29;20032;-80
2023/04/21 06:23:17;;;;;;;150.13;51.25;;;;;;;8.75;100.00;101044.84;4876733;29;20055;-81
2023/04/21 06:25:43;;;;;;;131.05;49.90;;;;;;;8.84;100.00;101054.28;4912104;29;20036;-82
2023/04/21 06:28:08;;;;;;;127.88;49.10;;;;;;;8.97;100.00;101044.28;4901437;29;20028;-81
2023/04/21 06:30:34;;;;;;;115.13;47.97;;;;;;;9.14;100.00;101050.41;4890670;29;20049;-80
2023/04/21 06:32:59;;;;;;;112.80;47.70;;;;;;;9.24;100.00;101047.91;4902379;29;20036;-79
2023/04/21 06:35:25;;;;;;;99.90;45.55;;;;;;;9.35;100.00;101053.50;4875931;29;20140;-78
2023/04/21 06:37:51;;;;;;;90.22;42.47;;;;;;;9.50;100.00;101052.38;4901556;29;20106;-78
2023/04/21 06:40:16;;;;;;;87.13;40.92;;;;;;;9.59;100.00;101049.97;4892523;29;20029;-78
2023/04/21 06:42:42;;;;;;;96.03;43.85;;;;;;;10.05;100.00;101055.72;4897135;29;20457;-79
2023/04/21 06:45:08;;;;;;;72.65;38.38;;;;;;;10.07;100.00;101055.59;4903762;29;20036;-80
2023/04/21 06:47:33;;;;;;;77.93;39.10;;;;;;;10.38;100.00;101056.06;4905183;29;20047;-79
2023/04/21 06:49:59;;;;;;;77.70;36.75;;;;;;;10.55;100.00;101054.81;4921461;29;20044;-78
2023/04/21 06:52:25;;;;;;;67.97;33.42;;;;;;;10.97;100.00;101056.13;4888924;29;20024;-79
2023/04/21 06:54:50;;;;;;;62.33;32.00;;;;;;;10.62;100.00;101058.81;4898938;29;20112;-78
2023/04/21 06:57:16;;;;;;;58.47;31.60;;;;;;;10.63;100.00;101057.84;4896415;29;20039;-78
2023/04/21 06:59:42;;;;;;;63.25;33.55;;;;;;;10.56;100.00;101049.22;4919361;29;20048;-79
2023/04/21 07:02:08;;;;;;;57.95;31.38;;;;;;;10.76;100.00;101046.81;4904851;29;20131;-79
2023/04/21 07:04:34;;;;;;;60.30;31.05;;;;;;;11.01;100.00;101063.09;4920471;29;20540;-79
2023/04/21 07:06:59;;;;;;;56.05;30.95;;;;;;;11.04;100.00;101062.00;4920705;29;20115;-79
2023/04/21 07:09:27;;;;;;;54.03;29.73;;;;;;;11.00;100.00;101057.72;4916530;29;20399;-79
2023/04/21 07:11:54;;;;;;;56.33;29.45;;;;;;;11.14;100.00;101052.03;4905144;29;20043;-79
2023/04/21 07:14:19;;;;;;;52.15;28.70;;;;;;;11.03;100.00;101049.25;4908079;29;20037;-79
2023/04/21 07:16:45;;;;;;;50.85;28.58;;;;;;;11.43;100.00;101057.09;4886212;29;20583;-79
2023/04/21 07:19:10;;;;;;;56.97;29.25;;;;;;;11.33;100.00;101061.53;4910806;29;20048;-79
2023/04/21 07:21:36;;;;;;;50.72;28.10;;;;;;;12.15;100.00;101053.16;4917773;29;20496;-79
2023/04/21 07:24:02;;;;;;;43.22;26.30;;;;;;;12.19;100.00;101049.13;4872476;29;20091;-79
2023/04/21 07:26:28;;;;;;;49.30;27.50;;;;;;;12.58;100.00;101034.97;4903592;29;20036;-79
2023/04/21 07:28:57;;;;;;;45.08;25.58;;;;;;;12.70;100.00;101042.13;4903552;29;20480;-79
2023/04/21 07:31:25;;;;;;;40.20;24.25;;;;;;;12.83;100.00;101030.97;4901758;29;20024;-80
2023/04/21 07:33:51;;;;;;;37.05;22.80;;;;;;;12.40;100.00;101031.88;4919035;29;20096;-79
2023/04/21 07:36:16;;;;;;;39.17;23.50;;;;;;;12.62;100.00;101031.78;4880322;29;20032;-79
2023/04/21 07:38:42;;;;;;;40.42;21.77;;;;;;;12.62;100.00;101033.69;4899530;29;20095;-79
2023/04/21 07:41:12;;;;;;;33.55;20.98;;;;;;;13.24;100.00;101040.25;4885555;29;20558;-79
2023/04/21 07:43:38;;;;;;;33.33;21.45;;;;;;;13.23;100.00;101038.50;4887563;29;20134;-80
2023/04/21 07:46:04;;;;;;;37.00;22.30;;;;;;;13.52;100.00;101035.09;4898283;29;20041;-79
2023/04/21 07:48:30;;;;;;;36.25;23.05;;;;;;;13.28;100.00;101039.00;4883783;29;20040;-80
2023/04/21 07:50:57;;;;;;;35.80;20.85;;;;;;;13.58;100.00;101029.91;4899432;29;20175;-79
2023/04/21 07:53:22;;;;;;;34.45;21.20;;;;;;;13.53;100.00;101047.84;4895306;29;20049;-79
2023/04/21 07:55:48;;;;;;;28.60;18.80;;;;;;;13.75;100.00;101044.91;4864852;29;20401;-79
2023/04/21 07:58:13;;;;;;;28.30;18.10;;;;;;;13.96;100.00;101046.75;4880820;29;20033;-79
2023/04/21 08:00:39;;;;;;;29.85;18.67;;;;;;;14.17;100.00;101046.69;4881623;29;20047;-80
2023/04/21 08:03:04;;;;;;;29.00;18.40;;;;;;;14.25;100.00;101044.09;4888416;29;20041;-79
2023/04/21 08:05:31;;;;;;;31.15;18.23;;;;;;;14.27;100.00;101038.44;4899669;29;20036;-79
2023/04/21 08:07:56;;;;;;;28.70;17.83;;;;;;;14.08;100.00;101040.13;4837590;29;20056;-80
2023/04/21 08:10:22;;;;;;;28.73;18.83;;;;;;;14.25;100.00;101043.19;4849775;29;20452;-79
2023/04/21 08:12:48;;;;;;;26.40;17.42;;;;;;;14.41;100.00;101046.28;4870198;29;20484;-80
2023/04/21 08:15:13;;;;;;;27.13;16.65;;;;;;;14.47;100.00;101048.47;4900389;29;20056;-80
2023/04/21 08:17:38;;;;;;;30.20;17.15;;;;;;;13.64;100.00;101046.88;4899937;29;20036;-79
2023/04/21 08:20:05;;;;;;;26.67;16.90;;;;;;;14.00;100.00;101037.19;4899232;29;20072;-80
2023/04/21 08:22:30;;;;;;;24.88;15.32;;;;;;;13.47;100.00;101041.00;4881030;29;20104;-80
2023/04/21 08:24:56;;;;;;;28.80;16.85;;;;;;;14.29;100.00;101031.78;4880174;29;20053;-79
2023/04/21 08:27:22;;;;;;;24.35;16.25;;;;;;;14.22;100.00;101043.50;4880337;29;20033;-80
2023/04/21 08:29:50;;;;;;;26.63;16.77;;;;;;;14.92;100.00;101037.97;4879555;29;20128;-79
2023/04/21 08:32:21;;;;;;;24.50;15.98;;;;;;;14.61;100.00;101021.56;4882014;29;20065;-79
2023/04/21 08:34:47;;;;;;;25.63;16.05;;;;;;;14.66;100.00;101027.53;4895370;29;20041;-79
2023/04/21 08:37:13;;;;;;;22.90;15.20;;;;;;;14.47;100.00;101040.22;4876306;29;20409;-80
2023/04/21 08:39:38;;;;;;;29.95;17.08;;;;;;;14.26;100.00;101034.81;4881050;29;20025;-80
2023/04/21 08:42:05;;;;;;;26.77;17.77;;;;;;;14.66;100.00;101027.53;4881645;29;20437;-79
2023/04/21 08:44:30;;;;;;;28.98;17.95;;;;;;;15.13;100.00;101029.53;4866864;29;20032;-80
2023/04/21 08:46:58;;;;;;;26.45;16.88;;;;;;;15.45;100.00;101029.19;4867524;29;20063;-80
2023/04/21 08:49:30;;;;;;;24.65;15.73;;;;;;;14.42;100.00;101025.13;4882256;29;20544;-79
2023/04/21 08:51:55;;;;;;;28.20;18.25;;;;;;;14.70;100.00;101015.19;4899619;29;20041;-80
2023/04/21 08:54:20;;;;;;;29.08;18.25;;;;;;;14.48;100.00;101021.81;4898269;29;20052;-80
2023/04/21 08:56:49;;;;;;;32.55;18.38;;;;;;;14.42;100.00;101026.00;4900939;29;20047;-79
2023/04/21 08:59:15;;;;;;;30.52;18.90;;;;;;;14.22;100.00;101013.22;4874915;29;20514;-79
2023/04/21 09:02:05;;;;;;;31.63;18.92;;;;;;;14.36;100.00;101022.94;4897977;29;20040;-79
2023/04/21 09:04:31;;;;;;;28.73;18.73;;;;;;;14.56;100.00;101024.72;4882387;29;20041;-79
2023/04/21 09:06:56;;;;;;;28.30;18.58;;;;;;;14.36;100.00;101011.94;4890383;29;20047;-81
2023/04/21 09:09:22;;;;;;;30.13;19.17;;;;;;;14.75;100.00;101025.78;4906652;29;20051;-81
2023/04/21 09:11:58;;;;;;;29.00;17.77;;;;;;;14.76;100.00;101017.38;4881882;29;20047;-80
2023/04/21 09:14:33;;;;;;;28.00;18.30;;;;;;;14.67;100.00;101015.47;4907517;29;20051;-80
2023/04/21 09:17:01;;;;;;;30.20;18.58;;;;;;;14.68;100.00;101014.47;4901110;29;20040;-80
2023/04/21 09:19:27;;;;;;;27.27;17.85;;;;;;;15.16;100.00;101018.22;4900410;29;20184;-80
2023/04/21 09:21:53;;;;;;;26.90;16.75;;;;;;;14.88;100.00;101018.94;4900864;29;20040;-80
2023/04/21 09:24:19;;;;;;;24.85;17.13;;;;;;;14.94;100.00;101020.28;4900634;29;20032;-80
2023/04/21 09:26:50;;;;;;;27.40;17.83;;;;;;;15.05;100.00;101019.22;4900479;29;20400;-79
2023/04/21 09:29:16;;;;;;;24.33;16.45;;;;;;;15.74;100.00;101019.94;4880923;29;20543;-80
2023/04/21 09:31:43;;;;;;;24.92;16.52;;;;;;;15.57;100.00;101025.22;4867523;29;20116;-80
2023/04/21 09:34:20;;;;;;;25.83;17.90;;;;;;;14.08;100.00;101026.34;4882003;29;20032;-80
2023/04/21 09:36:47;;;;;;;28.00;17.65;;;;;;;14.81;100.00;101025.22;4896102;29;20139;-80
2023/04/21 09:39:13;;;;;;;27.27;16.95;;;;;;;15.34;100.00;101015.56;4882054;29;20902;-82
2023/04/21 09:41:39;;;;;;;25.33;16.35;;;;;;;15.85;100.00;101019.78;4884083;29;20401;-79
2023/04/21 09:44:05;;;;;;;27.10;17.10;;;;;;;14.82;100.00;101018.66;4887671;29;20036;-79
2023/04/21 09:46:33;;;;;;;28.73;17.42;;;;;;;15.07;100.00;101023.59;4888206;29;20034;-79
2023/04/21 09:49:02;;;;;;;27.17;17.55;;;;;;;15.01;100.00;101015.91;4900897;29;20032;-79
2023/04/21 09:51:30;;;;;;;28.08;17.05;;;;;;;15.96;100.00;101016.81;4885317;29;20096;-79
2023/04/21 09:53:59;;;;;;;28.33;17.20;;;;;;;16.15;100.00;101014.97;4900129;29;20128;-78
2023/04/21 09:56:26;;;;;;;22.63;15.23;;;;;;;16.37;100.00;101004.53;4884790;29;20521;-80
2023/04/21 09:58:55;;;;;;;26.17;16.38;;;;;;;15.76;100.00;100995.84;4869472;29;20100;-80
2023/04/21 10:01:25;;;;;;;28.90;18.35;;;;;;;15.24;100.00;101012.81;4894404;29;20064;-80
2023/04/21 10:03:52;;;;;;;26.75;17.90;;;;;;;15.53;100.00;101004.47;4892886;29;20464;-80
2023/04/21 10:06:18;;;;;;;27.63;18.17;;;;;;;15.64;100.00;101003.41;4920713;29;20040;-79
2023/04/21 10:08:44;;;;;;;26.40;16.70;;;;;;;15.98;100.00;100997.34;4919644;29;20040;-81
2023/04/21 10:11:11;;;;;;;27.65;16.65;;;;;;;16.28;100.00;101007.22;4869899;29;20063;-80
2023/04/21 10:13:38;;;;;;;27.20;16.80;;;;;;;16.24;100.00;101000.25;4899869;29;20040;-80
2023/04/21 10:16:06;;;;;;;25.70;16.80;;;;;;;16.39;100.00;101002.47;4884730;29;20033;-79
2023/04/21 10:18:52;;;;;;;27.67;17.67;;;;;;;16.27;100.00;101002.69;4888098;29;20044;-80
2023/04/21 10:21:20;;;;;;;27.60;17.17;;;;;;;16.34;100.00;100998.28;4908893;29;20570;-80
2023/04/21 10:23:53;;;;;;;23.42;16.50;;;;;;;16.85;100.00;100998.63;4875300;29;20049;-80
2023/04/21 10:26:23;;;;;;;28.45;17.77;;;;;;;17.14;100.00;100991.13;4901305;29;20041;-80
2023/04/21 10:28:59;;;;;;;24.02;16.48;;;;;;;16.94;100.00;100976.59;4901566;29;20389;-80
2023/04/21 10:31:29;;;;;;;24.00;16.20;;;;;;;16.45;100.00;100985.28;4877392;29;20396;-78
2023/04/21 10:34:07;;;;;;;27.75;17.38;;;;;;;16.12;100.00;100980.25;4903295;29;20024;-79
2023/04/21 10:36:50;;;;;;;25.35;16.70;;;;;;;16.20;100.00;100976.72;4919316;29;20067;-79
2023/04/21 10:39:28;;;;;;;24.90;16.83;;;;;;;15.89;100.00;100966.00;4920341;29;20088;-79
2023/04/21 10:42:21;;;;;;;23.02;14.93;;;;;;;16.42;100.00;100980.91;4870013;29;20059;-80
2023/04/21 10:44:56;;;;;;;23.55;16.45;;;;;;;16.32;100.00;100969.06;4884546;29;20036;-80
2023/04/21 10:47:35;;;;;;;22.08;14.43;;;;;;;16.50;100.00;100956.13;4886542;29;20095;-80
2023/04/21 10:50:12;;;;;;;21.92;14.48;;;;;;;16.89;100.00;100960.50;4885180;29;20412;-80
2023/04/21 10:52:42;;;;;;;23.15;15.88;;;;;;;16.57;100.00;100949.97;4882308;29;20183;-80
2023/04/21 10:55:14;;;;;;;18.00;13.40;;;;;;;15.96;100.00;100942.25;4900081;29;20072;-80
2023/04/21 10:57:43;;;;;;;21.02;12.93;;;;;;;16.40;100.00;100948.94;4899212;29;20123;-80
2023/04/21 11:00:10;;;;;;;23.17;14.63;;;;;;;16.57;100.00;100941.69;4883682;29;20047;-80
2023/04/21 11:02:36;;;;;;;21.85;14.90;;;;;;;16.11;100.00;100931.53;4898019;29;20494;-80